createdAt,value
2023-01-13T00:01:14.185Z,97.02
2023-01-13T00:03:42.595Z,96.89
2023-01-13T00:06:13.815Z,96.83
2023-01-13T00:08:42.072Z,96.94
2023-01-13T00:11:11.261Z,97.03
2023-01-13T00:13:40.067Z,97.20
2023-01-13T00:16:13.145Z,97.03
2023-01-13T00:18:41.452Z,96.80
2023-01-13T00:21:13.796Z,96.73
2023-01-13T00:23:42.521Z,97.01
2023-01-13T00:26:14.992Z,96.68
2023-01-13T00:28:43.347Z,97.00
2023-01-13T00:31:14.565Z,96.88
2023-01-13T00:33:43.255Z,97.06
2023-01-13T00:36:14.819Z,97.17
2023-01-13T00:38:44.084Z,97.07
2023-01-13T00:41:14.738Z,97.30
2023-01-13T00:43:43.311Z,97.26
2023-01-13T00:46:16.049Z,97.17
2023-01-13T00:48:44.567Z,97.36
2023-01-13T00:51:15.003Z,97.43
2023-01-13T00:53:44.825Z,97.58
2023-01-13T00:56:16.642Z,97.64
2023-01-13T00:58:46.088Z,97.75
2023-01-13T01:01:18.324Z,97.85
2023-01-13T01:03:51.042Z,97.84
2023-01-13T01:06:21.235Z,97.68
2023-01-13T01:08:49.458Z,97.73
2023-01-13T01:11:20.505Z,97.79
2023-01-13T01:13:49.146Z,97.80
2023-01-13T01:16:20.422Z,97.80
2023-01-13T01:18:50.119Z,97.76
2023-01-13T01:21:19.471Z,97.86
2023-01-13T01:23:47.903Z,97.84
2023-01-13T01:26:18.239Z,97.79
2023-01-13T01:28:47.087Z,97.72
2023-01-13T01:31:17.630Z,97.74
2023-01-13T01:33:47.775Z,97.77
2023-01-13T01:36:17.528Z,97.77
2023-01-13T01:38:46.395Z,97.86
2023-01-13T01:41:17.073Z,97.79
2023-01-13T01:44:07.148Z,97.74
2023-01-13T01:46:38.149Z,97.58
2023-01-13T01:49:17.250Z,97.58
2023-01-13T01:51:50.263Z,97.49
2023-01-13T01:54:23.375Z,97.64
2023-01-13T01:56:52.169Z,97.71
2023-01-13T01:59:25.308Z,97.79
2023-01-13T02:01:59.541Z,97.77
2023-01-13T02:04:38.489Z,97.85
2023-01-13T02:07:07.283Z,97.79
2023-01-13T02:09:37.616Z,97.75
2023-01-13T02:12:23.508Z,97.75
2023-01-13T02:14:51.809Z,97.57
2023-01-13T02:17:30.080Z,97.43
2023-01-13T02:20:36.671Z,97.30
2023-01-13T02:23:56.278Z,97.09
2023-01-13T02:26:52.349Z,96.85
2023-01-13T02:30:07.540Z,96.84
2023-01-13T02:32:41.541Z,96.78
2023-01-13T02:35:16.019Z,96.84
2023-01-13T02:37:45.504Z,96.84
2023-01-13T02:40:19.347Z,96.72
2023-01-13T02:43:09.708Z,96.55
2023-01-13T02:45:43.423Z,96.46
2023-01-13T02:48:14.103Z,96.30
2023-01-13T02:50:48.667Z,96.33
2023-01-13T02:53:22.917Z,96.40
2023-01-13T02:55:54.263Z,96.36
2023-01-13T02:58:27.250Z,96.47
2023-01-13T03:00:56.990Z,96.44
2023-01-13T03:03:25.616Z,96.41
2023-01-13T03:05:57.513Z,96.40
2023-01-13T03:08:42.952Z,96.44
2023-01-13T03:11:14.084Z,96.53
2023-01-13T03:14:09.254Z,96.40
2023-01-13T03:16:53.772Z,96.27
2023-01-13T03:19:37.352Z,96.44
2023-01-13T03:22:19.001Z,96.47
2023-01-13T03:24:54.279Z,96.49
2023-01-13T03:27:27.135Z,96.65
2023-01-13T03:29:59.669Z,96.89
2023-01-13T03:32:33.705Z,97.10
2023-01-13T03:35:08.739Z,97.02
2023-01-13T03:37:41.156Z,96.96
2023-01-13T03:40:15.348Z,96.89
2023-01-13T03:43:06.198Z,96.93
2023-01-13T03:45:36.136Z,96.94
2023-01-13T03:48:10.034Z,97.01
2023-01-13T03:50:42.141Z,97.00
2023-01-13T03:53:15.163Z,96.90
2023-01-13T03:55:49.131Z,96.98
2023-01-13T03:58:21.724Z,97.02
2023-01-13T04:00:54.855Z,96.94
2023-01-13T04:03:30.645Z,96.79
2023-01-13T04:06:11.243Z,96.77
2023-01-13T04:08:48.373Z,96.75
2023-01-13T04:11:20.995Z,96.59
2023-01-13T04:13:50.776Z,96.57
2023-01-13T04:16:19.081Z,96.60
2023-01-13T04:18:51.263Z,96.58
2023-01-13T04:21:19.418Z,96.51
2023-01-13T04:23:51.420Z,96.69
2023-01-13T04:26:20.401Z,96.79
2023-01-13T04:28:49.148Z,96.79
2023-01-13T04:31:17.317Z,96.76
2023-01-13T04:33:45.532Z,96.73
2023-01-13T04:36:15.073Z,96.74
2023-01-13T04:38:43.228Z,96.83
2023-01-13T04:41:11.480Z,96.97
2023-01-13T04:43:39.747Z,96.77
2023-01-13T04:46:07.982Z,96.79
2023-01-13T04:48:36.213Z,96.78
2023-01-13T04:51:04.348Z,96.94
2023-01-13T04:53:33.867Z,97.00
2023-01-13T04:56:01.983Z,97.03
2023-01-13T04:58:30.052Z,97.02
2023-01-13T05:00:58.261Z,97.11
2023-01-13T05:03:26.885Z,97.06
2023-01-13T05:05:55.038Z,96.97
2023-01-13T05:08:23.209Z,97.01
2023-01-13T05:10:52.689Z,97.15
2023-01-13T05:13:38.170Z,97.10
2023-01-13T05:16:24.681Z,97.16
2023-01-13T05:18:52.884Z,97.24
2023-01-13T05:21:38.385Z,97.21
2023-01-13T05:24:24.590Z,97.11
2023-01-13T05:26:54.108Z,97.14
2023-01-13T05:29:22.350Z,97.28
2023-01-13T05:31:51.008Z,97.36
2023-01-13T05:34:19.156Z,97.36
2023-01-13T05:36:47.330Z,97.35
2023-01-13T05:39:15.644Z,97.22
2023-01-13T05:42:01.443Z,97.01
2023-01-13T05:44:31.008Z,96.82
2023-01-13T05:46:59.122Z,96.64
2023-01-13T05:49:27.379Z,96.71
2023-01-13T05:51:57.632Z,96.78
2023-01-13T05:54:25.814Z,96.90
2023-01-13T05:56:53.942Z,96.99
2023-01-13T05:59:22.134Z,97.00
2023-01-13T06:01:51.864Z,97.08
2023-01-13T06:04:20.106Z,97.12
2023-01-13T06:06:48.987Z,97.13
2023-01-13T06:09:17.316Z,97.17
2023-01-13T06:11:46.512Z,97.24
2023-01-13T06:14:14.861Z,97.26
2023-01-13T06:16:42.995Z,97.18
2023-01-13T06:19:14.058Z,97.11
2023-01-13T06:21:43.568Z,97.09
2023-01-13T06:24:12.273Z,97.11
2023-01-13T06:26:41.932Z,97.17
2023-01-13T06:29:14.116Z,97.35
2023-01-13T06:31:42.330Z,97.33
2023-01-13T06:34:15.839Z,97.22
2023-01-13T06:36:48.622Z,97.24
2023-01-13T06:39:21.349Z,97.37
2023-01-13T06:42:08.197Z,97.46
2023-01-13T06:44:36.409Z,97.53
2023-01-13T06:47:04.981Z,97.63
2023-01-13T06:49:34.536Z,97.60
2023-01-13T06:52:02.753Z,97.62
2023-01-13T06:54:30.918Z,97.49
2023-01-13T06:56:59.103Z,97.31
2023-01-13T06:59:27.326Z,97.25
2023-01-13T07:01:55.676Z,97.12
2023-01-13T07:04:24.089Z,97.13
2023-01-13T07:06:53.793Z,97.12
2023-01-13T07:09:21.920Z,96.97
2023-01-13T07:11:52.088Z,96.78
2023-01-13T07:14:37.979Z,96.54
2023-01-13T07:17:06.432Z,96.35
2023-01-13T07:19:34.624Z,96.11
2023-01-13T07:22:04.195Z,96.21
2023-01-13T07:24:32.428Z,96.14
2023-01-13T07:27:00.617Z,96.02
2023-01-13T07:29:28.808Z,95.87
2023-01-13T07:31:59.002Z,95.81
2023-01-13T07:34:27.102Z,95.44
2023-01-13T07:36:55.366Z,95.32
2023-01-13T07:39:24.861Z,95.09
2023-01-13T07:42:10.930Z,95.14
2023-01-13T07:44:40.940Z,95.25
2023-01-13T07:47:11.237Z,95.28
2023-01-13T07:49:39.367Z,95.43
2023-01-13T07:52:07.566Z,95.38
2023-01-13T07:54:40.932Z,95.41
2023-01-13T07:57:10.553Z,95.41
2023-01-13T07:59:38.807Z,95.08
2023-01-13T08:02:07.568Z,95.18
2023-01-13T08:04:35.792Z,95.55
2023-01-13T08:07:06.681Z,95.57
2023-01-13T08:09:36.255Z,95.80
2023-01-13T08:12:21.946Z,95.92
2023-01-13T08:14:51.809Z,95.78
2023-01-13T08:17:20.702Z,95.69
2023-01-13T08:19:49.151Z,95.66
2023-01-13T08:22:17.345Z,95.47
2023-01-13T08:24:50.918Z,95.52
2023-01-13T08:27:20.355Z,95.50
2023-01-13T08:29:48.587Z,95.39
2023-01-13T08:32:16.794Z,95.29
2023-01-13T08:34:45.006Z,95.13
2023-01-13T08:37:13.162Z,94.71
2023-01-13T08:39:45.317Z,94.33
2023-01-13T08:42:14.832Z,94.72
2023-01-13T08:44:43.007Z,94.95
2023-01-13T08:47:11.139Z,95.00
2023-01-13T08:49:39.274Z,95.23
2023-01-13T08:52:08.151Z,95.16
2023-01-13T08:54:36.377Z,95.30
2023-01-13T08:57:04.702Z,95.19
2023-01-13T08:59:34.857Z,94.67
2023-01-13T09:02:03.584Z,94.63
2023-01-13T09:04:32.298Z,94.14
2023-01-13T09:07:02.362Z,94.26
2023-01-13T09:09:30.561Z,93.65
2023-01-13T09:12:16.728Z,93.53
2023-01-13T09:14:46.358Z,93.11
2023-01-13T09:17:14.720Z,92.94
2023-01-13T09:19:42.953Z,93.09
2023-01-13T09:22:15.062Z,93.21
2023-01-13T09:24:43.298Z,93.40
2023-01-13T09:27:12.654Z,93.82
2023-01-13T09:29:40.819Z,93.37
2023-01-13T09:32:13.267Z,92.79
2023-01-13T09:34:59.329Z,93.19
2023-01-13T09:37:28.441Z,92.55
2023-01-13T09:39:56.777Z,92.09
2023-01-13T09:42:57.344Z,91.53
2023-01-13T09:45:29.780Z,92.23
2023-01-13T09:48:05.974Z,91.76
2023-01-13T09:50:49.023Z,90.38
2023-01-13T09:53:22.825Z,90.50
2023-01-13T09:55:51.340Z,90.26
2023-01-13T09:58:20.440Z,90.45
2023-01-13T10:01:02.109Z,90.79
2023-01-13T10:03:33.497Z,90.80
2023-01-13T10:06:06.970Z,90.50
2023-01-13T10:08:38.827Z,89.80
2023-01-13T10:11:27.730Z,90.37
2023-01-13T10:14:00.042Z,90.19
2023-01-13T10:16:42.212Z,90.17
2023-01-13T10:19:19.749Z,90.64
2023-01-13T10:22:09.271Z,91.02
2023-01-13T10:24:54.372Z,90.43
2023-01-13T10:27:30.592Z,90.59
2023-01-13T10:29:58.769Z,91.03
2023-01-13T10:32:26.919Z,91.06
2023-01-13T10:34:58.063Z,91.27
2023-01-13T10:37:28.817Z,91.00
2023-01-13T10:40:00.811Z,90.70
2023-01-13T10:42:29.300Z,90.71
2023-01-13T10:44:58.918Z,91.23
2023-01-13T10:47:29.731Z,91.65
2023-01-13T10:50:24.480Z,90.98
2023-01-13T10:53:01.753Z,91.37
2023-01-13T10:55:33.346Z,90.61
2023-01-13T10:58:14.167Z,90.84
2023-01-13T11:00:42.451Z,90.95
2023-01-13T11:03:16.704Z,90.80
2023-01-13T11:05:57.463Z,91.50
2023-01-13T11:08:27.818Z,91.17
2023-01-13T11:10:57.260Z,91.28
2023-01-13T11:13:31.882Z,91.34
2023-01-13T11:16:04.887Z,91.39
2023-01-13T11:18:43.682Z,91.25
2023-01-13T11:21:23.668Z,91.52
2023-01-13T11:24:07.160Z,91.20
2023-01-13T11:26:44.543Z,91.04
2023-01-13T11:29:19.190Z,90.47
2023-01-13T11:31:50.197Z,90.57
2023-01-13T11:34:29.177Z,91.31
2023-01-13T11:37:00.681Z,90.93
2023-01-13T11:39:35.172Z,90.48
2023-01-13T11:42:22.434Z,90.67
2023-01-13T11:44:57.884Z,91.42
2023-01-13T11:47:27.603Z,91.06
2023-01-13T11:49:56.084Z,90.62
2023-01-13T11:52:34.276Z,90.91
2023-01-13T11:55:22.618Z,91.70
2023-01-13T11:58:13.318Z,91.38
2023-01-13T12:01:10.873Z,91.35
2023-01-13T12:03:44.246Z,91.22
2023-01-13T12:06:23.052Z,91.02
2023-01-13T12:09:12.035Z,91.69
2023-01-13T12:12:07.515Z,91.04
2023-01-13T12:14:42.732Z,92.12
2023-01-13T12:17:21.842Z,91.89
2023-01-13T12:19:51.540Z,92.03
2023-01-13T12:22:25.169Z,91.76
2023-01-13T12:24:59.341Z,92.16
2023-01-13T12:27:36.357Z,91.90
2023-01-13T12:30:14.627Z,91.63
2023-01-13T12:32:43.538Z,91.42
2023-01-13T12:35:38.920Z,91.20
2023-01-13T12:38:12.167Z,91.58
2023-01-13T12:40:52.695Z,91.70
2023-01-13T12:43:40.467Z,91.40
2023-01-13T12:46:41.906Z,91.34
2023-01-13T12:49:27.468Z,91.56
2023-01-13T12:52:15.383Z,91.14
2023-01-13T12:55:10.317Z,91.93
2023-01-13T12:57:40.412Z,92.70
2023-01-13T13:00:18.442Z,91.58
2023-01-13T13:03:22.846Z,91.94
2023-01-13T13:05:58.091Z,92.49
2023-01-13T13:08:43.952Z,91.72
2023-01-13T13:11:53.909Z,91.29
2023-01-13T13:14:55.124Z,91.49
2023-01-13T13:17:45.105Z,91.88
2023-01-13T13:20:46.542Z,91.63
2023-01-13T13:23:49.073Z,92.13
2023-01-13T13:26:21.871Z,91.83
2023-01-13T13:29:00.553Z,91.40
2023-01-13T13:31:38.962Z,91.63
2023-01-13T13:34:23.206Z,91.80
2023-01-13T13:37:03.487Z,91.88
2023-01-13T13:39:51.227Z,91.98
2023-01-13T13:42:39.862Z,92.04
2023-01-13T13:45:34.157Z,92.35
2023-01-13T13:48:16.403Z,92.42
2023-01-13T13:50:50.643Z,92.50
2023-01-13T13:53:21.188Z,92.40
2023-01-13T13:55:59.743Z,92.62
2023-01-13T13:58:29.499Z,92.50
2023-01-13T14:00:58.785Z,92.76
2023-01-13T14:03:30.540Z,92.70
2023-01-13T14:06:08.163Z,92.36
2023-01-13T14:08:38.860Z,92.50
2023-01-13T14:11:26.475Z,92.46
2023-01-13T14:14:03.370Z,92.75
2023-01-13T14:16:32.892Z,92.63
2023-01-13T14:19:01.707Z,92.34
2023-01-13T14:21:31.866Z,92.48
2023-01-13T14:24:04.655Z,92.29
2023-01-13T14:26:33.701Z,92.35
2023-01-13T14:29:03.269Z,92.42
2023-01-13T14:31:32.937Z,92.55
2023-01-13T14:34:32.126Z,92.66
2023-01-13T14:36:54.521Z,92.75
2023-01-13T14:39:27.352Z,92.89
2023-01-13T14:41:55.520Z,92.89
2023-01-13T14:44:27.045Z,92.80
2023-01-13T14:46:57.383Z,92.67
2023-01-13T14:49:30.740Z,92.66
2023-01-13T14:52:12.459Z,92.94
2023-01-13T14:54:46.133Z,92.91
2023-01-13T14:57:16.452Z,92.91
2023-01-13T14:59:51.835Z,93.12
2023-01-13T15:02:44.770Z,92.78
2023-01-13T15:05:42.725Z,92.93
2023-01-13T15:08:31.759Z,93.00
2023-01-13T15:11:01.561Z,93.18
2023-01-13T15:13:37.284Z,93.04
2023-01-13T15:16:17.667Z,92.98
2023-01-13T15:18:46.167Z,92.94
2023-01-13T15:21:15.811Z,93.16
2023-01-13T15:23:47.311Z,93.25
2023-01-13T15:26:24.606Z,93.35
2023-01-13T15:28:53.924Z,93.29
2023-01-13T15:31:23.201Z,93.34
2023-01-13T15:33:51.841Z,93.20
2023-01-13T15:36:25.871Z,93.52
2023-01-13T15:38:55.678Z,93.39
2023-01-13T15:41:37.886Z,93.34
2023-01-13T15:44:23.746Z,93.53
2023-01-13T15:46:53.551Z,93.34
2023-01-13T15:49:27.849Z,93.44
2023-01-13T15:51:56.009Z,93.33
2023-01-13T15:54:25.674Z,93.36
2023-01-13T15:56:54.873Z,93.53
2023-01-13T15:59:31.427Z,93.42
2023-01-13T16:01:59.678Z,93.45
2023-01-13T16:04:28.339Z,93.58
2023-01-13T16:06:56.596Z,93.75
2023-01-13T16:09:26.374Z,93.94
2023-01-13T16:11:54.699Z,94.08
2023-01-13T16:14:23.154Z,94.17
2023-01-13T16:16:51.840Z,93.99
2023-01-13T16:19:20.121Z,93.85
2023-01-13T16:21:48.288Z,93.92
2023-01-13T16:24:16.824Z,93.77
2023-01-13T16:26:46.508Z,93.87
2023-01-13T16:29:14.745Z,93.91
2023-01-13T16:31:43.093Z,93.78
2023-01-13T16:34:13.676Z,93.82
2023-01-13T16:36:42.011Z,93.84
2023-01-13T16:39:21.787Z,94.08
2023-01-13T16:41:51.792Z,93.96
2023-01-13T16:44:20.299Z,93.82
2023-01-13T16:46:48.783Z,94.09
2023-01-13T16:49:18.579Z,94.26
2023-01-13T16:51:46.783Z,94.21
2023-01-13T16:54:15.241Z,94.14
2023-01-13T16:56:43.464Z,94.16
2023-01-13T16:59:14.821Z,94.23
2023-01-13T17:01:46.587Z,94.05
2023-01-13T17:04:17.758Z,93.95
2023-01-13T17:06:52.202Z,93.82
2023-01-13T17:09:22.999Z,93.94
2023-01-13T17:11:52.145Z,94.15
2023-01-13T17:14:23.737Z,94.15
2023-01-13T17:16:54.835Z,93.85
2023-01-13T17:19:24.260Z,94.89
2023-01-13T17:21:52.813Z,94.97
2023-01-13T17:24:21.718Z,94.82
2023-01-13T17:26:51.823Z,94.64
2023-01-13T17:29:23.659Z,94.45
2023-01-13T17:31:52.690Z,94.22
2023-01-13T17:34:22.287Z,94.31
2023-01-13T17:36:51.555Z,94.19
2023-01-13T17:39:22.282Z,94.11
2023-01-13T17:41:51.275Z,94.15
2023-01-13T17:44:24.591Z,94.13
2023-01-13T17:46:54.849Z,94.06
2023-01-13T17:49:23.373Z,93.84
2023-01-13T17:51:53.132Z,94.11
2023-01-13T17:54:22.772Z,94.09
2023-01-13T17:56:51.829Z,93.97
2023-01-13T17:59:22.903Z,94.11
2023-01-13T18:01:51.920Z,94.18
2023-01-13T18:04:22.225Z,94.25
2023-01-13T18:06:51.710Z,94.11
2023-01-13T18:09:20.385Z,94.11
2023-01-13T18:11:49.313Z,94.12
2023-01-13T18:14:19.307Z,94.16
2023-01-13T18:16:49.914Z,94.18
2023-01-13T18:19:36.390Z,94.03
2023-01-13T18:22:23.294Z,93.85
2023-01-13T18:25:10.451Z,94.22
2023-01-13T18:27:41.900Z,94.67
2023-01-13T18:30:13.932Z,94.82
2023-01-13T18:32:44.123Z,94.88
2023-01-13T18:35:13.127Z,94.83
2023-01-13T18:37:44.489Z,94.97
2023-01-13T18:40:15.326Z,94.97
2023-01-13T18:42:52.911Z,94.73
2023-01-13T18:45:24.767Z,94.59
2023-01-13T18:47:58.409Z,94.31
2023-01-13T18:50:28.257Z,94.17
2023-01-13T18:52:57.963Z,94.44
2023-01-13T18:55:29.629Z,94.70
2023-01-13T18:58:00.092Z,94.64
2023-01-13T19:00:29.835Z,94.60
2023-01-13T19:05:35.651Z,94.84
2023-01-13T19:08:07.701Z,94.95
2023-01-13T19:10:36.732Z,94.91
2023-01-13T19:13:06.416Z,94.82
2023-01-13T19:15:38.371Z,94.99
2023-01-13T19:18:09.529Z,94.92
2023-01-13T19:20:39.648Z,94.99
2023-01-13T19:23:09.790Z,95.05
2023-01-13T19:25:39.269Z,95.10
2023-01-13T19:28:08.456Z,95.44
2023-01-13T19:30:37.868Z,95.38
2023-01-13T19:33:07.004Z,95.16
2023-01-13T19:35:43.673Z,94.76
2023-01-13T19:38:12.435Z,94.76
2023-01-13T19:40:41.665Z,94.53
2023-01-13T19:43:25.802Z,94.75
2023-01-13T19:45:55.207Z,94.88
2023-01-13T19:48:29.532Z,95.14
2023-01-13T19:51:00.851Z,95.34
2023-01-13T19:53:30.287Z,95.29
2023-01-13T19:55:59.264Z,94.90
2023-01-13T19:58:30.465Z,94.66
2023-01-13T20:00:59.025Z,94.87
2023-01-13T20:03:31.153Z,94.95
2023-01-13T20:06:09.113Z,94.89
2023-01-13T20:12:29.486Z,94.87
2023-01-13T20:14:59.503Z,94.76
2023-01-13T20:17:30.203Z,94.78
2023-01-13T20:20:01.245Z,94.60
2023-01-13T20:22:31.946Z,94.51
2023-01-13T20:25:07.133Z,95.31
2023-01-13T20:27:36.765Z,95.86
2023-01-13T20:30:09.794Z,95.96
2023-01-13T20:32:39.639Z,96.08
2023-01-13T20:35:19.286Z,95.86
2023-01-13T20:37:48.997Z,95.81
2023-01-13T20:40:18.585Z,96.01
2023-01-13T20:42:47.489Z,96.15
2023-01-13T20:45:21.141Z,96.05
2023-01-13T20:47:51.321Z,96.28
2023-01-13T20:50:22.944Z,96.43
2023-01-13T20:52:55.274Z,96.55
2023-01-13T20:55:24.385Z,96.71
2023-01-13T20:57:53.596Z,96.65
2023-01-13T21:00:23.137Z,96.24
2023-01-13T21:02:51.616Z,95.82
2023-01-13T21:05:20.514Z,95.57
2023-01-13T21:07:48.865Z,95.49
2023-01-13T21:10:19.245Z,95.59
2023-01-13T21:13:05.387Z,95.81
2023-01-13T21:15:33.665Z,96.09
2023-01-13T21:18:19.699Z,96.38
2023-01-13T21:20:48.199Z,96.57
2023-01-13T21:23:22.783Z,96.60
2023-01-13T21:25:52.631Z,96.42
2023-01-13T21:28:21.182Z,96.06
2023-01-13T21:30:50.215Z,95.82
2023-01-13T21:33:18.709Z,95.90
2023-01-13T21:35:46.924Z,96.22
2023-01-13T21:38:15.216Z,96.48
2023-01-13T21:40:43.490Z,96.50
2023-01-13T21:43:31.908Z,96.50
2023-01-13T21:46:31.969Z,96.98
2023-01-13T21:49:00.275Z,97.36
2023-01-13T21:51:29.054Z,97.50
2023-01-13T21:53:58.091Z,97.58
2023-01-13T21:56:26.983Z,97.44
2023-01-13T21:58:57.260Z,97.32
2023-01-13T22:01:25.608Z,97.31
2023-01-13T22:04:11.030Z,97.27
2023-01-13T22:06:39.499Z,97.23
2023-01-13T22:09:08.266Z,97.20
2023-01-13T22:11:36.446Z,97.00
2023-01-13T22:14:09.491Z,96.74
2023-01-13T22:16:41.754Z,96.61
2023-01-13T22:19:11.689Z,96.59
2023-01-13T22:21:40.097Z,96.39
2023-01-13T22:24:08.917Z,96.21
2023-01-13T22:26:37.249Z,96.12
2023-01-13T22:29:06.812Z,95.93
2023-01-13T22:31:35.371Z,95.80
2023-01-13T22:34:03.573Z,95.61
2023-01-13T22:36:31.826Z,95.36
2023-01-13T22:39:00.700Z,95.31
2023-01-13T22:41:29.098Z,95.21
2023-01-13T22:43:57.444Z,95.22
2023-01-13T22:46:27.068Z,95.38
2023-01-13T22:48:55.981Z,95.45
2023-01-13T22:51:25.223Z,95.47
2023-01-13T22:53:53.477Z,95.37
2023-01-13T22:56:23.650Z,95.61
2023-01-13T22:58:54.750Z,95.88
2023-01-13T23:01:24.445Z,96.04
2023-01-13T23:03:54.811Z,96.13
2023-01-13T23:06:24.362Z,96.11
2023-01-13T23:08:54.284Z,96.18
2023-01-13T23:11:24.750Z,96.49
2023-01-13T23:13:59.623Z,96.71
2023-01-13T23:16:30.038Z,96.81
2023-01-13T23:18:59.733Z,96.71
2023-01-13T23:21:31.026Z,96.69
2023-01-13T23:23:59.644Z,96.62
2023-01-13T23:26:28.303Z,96.62
2023-01-13T23:29:00.197Z,96.63
2023-01-13T23:31:28.533Z,96.80
2023-01-13T23:33:56.728Z,96.95
2023-01-13T23:36:28.246Z,97.12
2023-01-13T23:38:57.019Z,97.15
2023-01-13T23:41:26.820Z,97.13
2023-01-13T23:43:58.638Z,97.23
2023-01-13T23:46:27.714Z,97.17
2023-01-13T23:48:56.527Z,97.12
2023-01-13T23:51:27.690Z,97.00
2023-01-13T23:53:56.129Z,97.02
2023-01-13T23:56:27.426Z,97.11
2023-01-13T23:58:55.832Z,97.36
